メインページ
METAR-TAF:

METAR-TAF

空港 :

キュラソー島, オランダ領アンティル

ハト国際空港

緯度: 12-12N, 経度: 068-58W, 海抜: 9m

現時点の気象観測

当レポートは36分前の03:00(UTC)に作成
の風 10kt
気温 27°C
湿度 79%
気圧 1015 hPa
視程10km以上
高度1700ftの雲は散在している

METAR: TNCC 260300Z 10010KT 9999 SCT017 27/23 Q1015 NOSIG

時間: 23:36 (03:36 UTC)

予報

当レポートは5時間36分前の22:00(UTC)に作成
予報は26日の 00時(UTC)から 26日の 24時(UTC)まで有効
の風 15kt
視程10km以上
高度1800ftの雲は散在している
26日の 11時(UTC)から 26日の 20時(UTC)まで一時的に
の風 15kt、最大26ktの突風を伴う

TAF: TNCC 252200Z 2600/2624 09015KT 9999 SCT018 TEMPO 2611/2620 10015G26KT

4,000以上の空港の気象観測と天気予報(METAR報とTAF報)

利用可能な観測所は地図上に黄色い丸と赤い丸で示す。

丸の上にカーソルを重ねると観測所名を参照できる。

次にクリックすると気象観測と天気予報を参照できる。

マップの切り替え:黒色「×」印の緑ボタンをクリックして拡大、「-」印の緑ボタンをクリックして縮小、緑色の三角印をクリックして隣りの地図に切り替え


METAR-TAF: